createdAt,value
2023-01-15T00:00:28.593Z,28.93
2023-01-15T00:01:28.597Z,28.94
2023-01-15T00:02:28.546Z,28.90
2023-01-15T00:03:28.520Z,28.92
2023-01-15T00:04:28.468Z,28.88
2023-01-15T00:05:28.436Z,28.93
2023-01-15T00:06:28.409Z,28.97
2023-01-15T00:07:28.367Z,28.94
2023-01-15T00:08:28.327Z,28.90
2023-01-15T00:09:28.312Z,28.94
2023-01-15T00:10:28.271Z,28.98
2023-01-15T00:11:28.223Z,28.92
2023-01-15T00:12:28.202Z,28.94
2023-01-15T00:13:28.248Z,28.92
2023-01-15T00:14:28.125Z,28.92
2023-01-15T00:15:28.084Z,28.93
2023-01-15T00:16:28.088Z,28.90
2023-01-15T00:17:28.064Z,28.88
2023-01-15T00:18:28.011Z,28.95
2023-01-15T00:19:27.992Z,28.94
2023-01-15T00:20:27.952Z,28.94
2023-01-15T00:21:27.912Z,28.90
2023-01-15T00:22:27.911Z,28.93
2023-01-15T00:23:27.878Z,28.90
2023-01-15T00:24:27.831Z,28.90
2023-01-15T00:25:27.785Z,28.85
2023-01-15T00:26:27.771Z,28.91
2023-01-15T00:27:27.734Z,28.92
2023-01-15T00:28:27.704Z,28.88
2023-01-15T00:29:27.661Z,28.90
2023-01-15T00:30:27.645Z,28.91
2023-01-15T00:31:27.647Z,28.87
2023-01-15T00:32:27.605Z,28.87
2023-01-15T00:33:27.540Z,28.92
2023-01-15T00:34:27.520Z,28.92
2023-01-15T00:35:27.481Z,28.92
2023-01-15T00:36:27.470Z,28.88
2023-01-15T00:37:27.437Z,28.94
2023-01-15T00:38:27.395Z,28.88
2023-01-15T00:39:27.375Z,28.87
2023-01-15T00:40:27.337Z,28.90
2023-01-15T00:41:27.301Z,28.88
2023-01-15T00:42:27.280Z,28.88
2023-01-15T00:43:27.267Z,28.85
2023-01-15T00:44:27.216Z,28.95
2023-01-15T00:45:27.196Z,28.91
2023-01-15T00:46:27.167Z,28.91
2023-01-15T00:47:27.160Z,28.92
2023-01-15T00:48:27.124Z,28.87
2023-01-15T00:49:27.099Z,28.92
2023-01-15T00:50:27.043Z,28.91
2023-01-15T00:51:27.032Z,28.91
2023-01-15T00:52:27.019Z,28.91
2023-01-15T00:53:26.975Z,28.95
2023-01-15T00:54:26.953Z,28.91
2023-01-15T00:55:26.923Z,28.91
2023-01-15T00:56:26.898Z,28.87
2023-01-15T00:57:26.875Z,28.88
2023-01-15T00:58:26.876Z,28.87
2023-01-15T00:59:26.826Z,28.91
2023-01-15T01:00:26.794Z,28.88
2023-01-15T01:01:26.851Z,28.88
2023-01-15T01:02:26.776Z,28.88
2023-01-15T01:03:26.727Z,28.90
2023-01-15T01:04:26.680Z,28.87
2023-01-15T01:05:26.655Z,28.91
2023-01-15T01:06:26.670Z,28.91
2023-01-15T01:07:26.610Z,28.91
2023-01-15T01:08:26.606Z,28.91
2023-01-15T01:09:26.574Z,28.91
2023-01-15T01:10:26.549Z,28.96
2023-01-15T01:11:26.584Z,28.92
2023-01-15T01:12:26.509Z,28.89
2023-01-15T01:13:26.504Z,28.91
2023-01-15T01:14:26.463Z,28.94
2023-01-15T01:15:26.443Z,28.92
2023-01-15T01:16:26.493Z,28.89
2023-01-15T01:17:26.390Z,28.87
2023-01-15T01:18:26.374Z,28.88
2023-01-15T01:19:26.362Z,28.92
2023-01-15T01:20:26.322Z,28.90
2023-01-15T01:21:26.308Z,28.92
2023-01-15T01:22:26.270Z,28.88
2023-01-15T01:23:26.252Z,28.91
2023-01-15T01:24:26.207Z,28.89
2023-01-15T01:25:26.200Z,28.89
2023-01-15T01:26:26.181Z,28.85
2023-01-15T01:27:26.165Z,28.90
2023-01-15T01:28:26.144Z,28.85
2023-01-15T01:29:26.107Z,28.91
2023-01-15T01:30:26.078Z,28.88
2023-01-15T01:31:26.069Z,28.91
2023-01-15T01:32:26.043Z,28.90
2023-01-15T01:33:26.025Z,28.88
2023-01-15T01:34:26.003Z,28.88
2023-01-15T01:35:25.961Z,28.88
2023-01-15T01:36:25.962Z,28.91
2023-01-15T01:37:25.939Z,28.90
2023-01-15T01:38:25.936Z,28.89
2023-01-15T01:39:25.875Z,28.91
2023-01-15T01:40:25.859Z,28.83
2023-01-15T01:41:25.823Z,28.89
2023-01-15T01:42:25.824Z,28.89
2023-01-15T01:43:25.789Z,28.85
2023-01-15T01:44:25.793Z,28.89
2023-01-15T01:45:25.782Z,28.91
2023-01-15T01:46:25.712Z,28.85
2023-01-15T01:47:25.677Z,28.90
2023-01-15T01:48:25.684Z,28.89
2023-01-15T01:49:25.645Z,28.87
2023-01-15T01:50:25.655Z,28.89
2023-01-15T01:51:25.597Z,28.87
2023-01-15T01:52:25.563Z,28.85
2023-01-15T01:53:25.524Z,28.88
2023-01-15T01:54:25.523Z,28.90
2023-01-15T01:55:25.481Z,28.88
2023-01-15T01:56:25.446Z,28.85
2023-01-15T01:57:25.410Z,28.87
2023-01-15T01:58:25.396Z,28.88
2023-01-15T01:59:25.387Z,28.88
2023-01-15T02:00:25.368Z,28.88
2023-01-15T02:01:25.444Z,28.89
2023-01-15T02:02:25.341Z,28.89
2023-01-15T02:03:25.268Z,28.84
2023-01-15T02:04:25.256Z,28.85
2023-01-15T02:05:25.220Z,28.83
2023-01-15T02:06:25.205Z,28.85
2023-01-15T02:07:25.176Z,28.83
2023-01-15T02:08:25.152Z,28.88
2023-01-15T02:09:25.148Z,28.85
2023-01-15T02:10:25.110Z,28.85
2023-01-15T02:11:25.110Z,28.84
2023-01-15T02:12:25.079Z,28.88
2023-01-15T02:13:25.058Z,28.85
2023-01-15T02:14:25.070Z,28.85
2023-01-15T02:15:25.029Z,28.84
2023-01-15T02:16:24.999Z,28.87
2023-01-15T02:17:24.993Z,28.85
2023-01-15T02:18:24.950Z,28.81
2023-01-15T02:19:24.966Z,28.87
2023-01-15T02:20:24.899Z,28.88
2023-01-15T02:21:24.883Z,28.85
2023-01-15T02:22:24.866Z,28.87
2023-01-15T02:23:24.842Z,28.84
2023-01-15T02:24:24.837Z,28.85
2023-01-15T02:25:24.800Z,28.92
2023-01-15T02:26:24.783Z,28.87
2023-01-15T02:27:24.761Z,28.81
2023-01-15T02:28:24.746Z,28.83
2023-01-15T02:29:24.761Z,28.85
2023-01-15T02:30:24.726Z,28.85
2023-01-15T02:31:24.719Z,28.85
2023-01-15T02:32:24.672Z,28.83
2023-01-15T02:33:24.693Z,28.84
2023-01-15T02:34:24.653Z,28.84
2023-01-15T02:35:24.617Z,28.83
2023-01-15T02:36:24.598Z,28.85
2023-01-15T02:37:24.570Z,28.86
2023-01-15T02:38:24.553Z,28.81
2023-01-15T02:39:24.528Z,28.88
2023-01-15T02:40:24.529Z,28.86
2023-01-15T02:41:24.482Z,28.85
2023-01-15T02:42:24.466Z,28.78
2023-01-15T02:43:24.433Z,28.84
2023-01-15T02:44:24.424Z,28.79
2023-01-15T02:45:24.412Z,28.89
2023-01-15T02:46:24.361Z,28.85
2023-01-15T02:47:24.338Z,28.84
2023-01-15T02:48:24.321Z,28.85
2023-01-15T02:49:24.298Z,28.88
2023-01-15T02:50:24.302Z,28.83
2023-01-15T02:51:24.258Z,28.85
2023-01-15T02:52:24.217Z,28.85
2023-01-15T02:53:24.215Z,28.85
2023-01-15T02:54:24.175Z,28.87
2023-01-15T02:55:24.205Z,28.85
2023-01-15T02:56:24.129Z,28.75
2023-01-15T02:57:24.120Z,28.84
2023-01-15T02:58:24.083Z,28.84
2023-01-15T02:59:24.071Z,28.86
2023-01-15T03:00:24.042Z,28.83
2023-01-15T03:01:24.156Z,28.83
2023-01-15T03:02:24.052Z,28.82
2023-01-15T03:03:23.970Z,28.85
2023-01-15T03:04:23.927Z,28.79
2023-01-15T03:05:23.946Z,28.83
2023-01-15T03:06:23.893Z,28.85
2023-01-15T03:07:23.848Z,28.85
2023-01-15T03:08:23.820Z,28.82
2023-01-15T03:09:23.808Z,28.77
2023-01-15T03:10:23.789Z,28.81
2023-01-15T03:11:23.788Z,28.81
2023-01-15T03:12:23.737Z,28.81
2023-01-15T03:13:23.721Z,28.82
2023-01-15T03:14:23.692Z,28.81
2023-01-15T03:15:23.681Z,28.82
2023-01-15T03:16:23.695Z,28.86
2023-01-15T03:17:23.645Z,28.81
2023-01-15T03:18:23.617Z,28.79
2023-01-15T03:19:23.595Z,28.81
2023-01-15T03:20:23.575Z,28.84
2023-01-15T03:21:23.535Z,28.81
2023-01-15T03:22:23.511Z,28.81
2023-01-15T03:23:23.507Z,28.81
2023-01-15T03:24:23.467Z,28.80
2023-01-15T03:25:23.456Z,28.83
2023-01-15T03:26:23.418Z,28.84
2023-01-15T03:27:23.395Z,28.77
2023-01-15T03:28:23.375Z,28.82
2023-01-15T03:29:23.351Z,28.82
2023-01-15T03:30:23.338Z,28.82
2023-01-15T03:31:23.326Z,28.81
2023-01-15T03:32:23.287Z,28.85
2023-01-15T03:33:23.262Z,28.79
2023-01-15T03:34:23.240Z,28.83
2023-01-15T03:35:23.202Z,28.82
2023-01-15T03:36:23.206Z,28.84
2023-01-15T03:37:23.175Z,28.82
2023-01-15T03:38:23.123Z,28.79
2023-01-15T03:39:23.107Z,28.81
2023-01-15T03:40:23.070Z,28.81
2023-01-15T03:41:23.065Z,28.78
2023-01-15T03:42:23.016Z,28.81
2023-01-15T03:43:22.990Z,28.79
2023-01-15T03:44:22.975Z,28.78
2023-01-15T03:45:22.956Z,28.81
2023-01-15T03:46:22.991Z,28.84
2023-01-15T03:47:22.892Z,28.84
2023-01-15T03:48:22.869Z,28.81
2023-01-15T03:49:22.847Z,28.82
2023-01-15T03:50:22.829Z,28.82
2023-01-15T03:51:22.811Z,28.79
2023-01-15T03:52:22.787Z,28.82
2023-01-15T03:53:22.731Z,28.74
2023-01-15T03:54:22.700Z,28.79
2023-01-15T03:55:22.686Z,28.78
2023-01-15T03:56:22.662Z,28.85
2023-01-15T03:57:22.649Z,28.77
2023-01-15T03:58:22.626Z,28.84
2023-01-15T03:59:22.592Z,28.82
2023-01-15T04:00:22.582Z,28.78
2023-01-15T04:01:22.677Z,28.82
2023-01-15T04:02:22.542Z,28.82
2023-01-15T04:03:22.507Z,28.80
2023-01-15T04:04:22.531Z,28.78
2023-01-15T04:05:22.464Z,28.82
2023-01-15T04:06:22.441Z,28.83
2023-01-15T04:07:22.405Z,28.81
2023-01-15T04:08:22.378Z,28.78
2023-01-15T04:09:22.359Z,28.77
2023-01-15T04:10:22.347Z,28.77
2023-01-15T04:11:22.306Z,28.74
2023-01-15T04:12:22.274Z,28.78
2023-01-15T04:13:22.257Z,28.79
2023-01-15T04:14:22.227Z,28.74
2023-01-15T04:15:22.196Z,28.77
2023-01-15T04:16:22.192Z,28.78
2023-01-15T04:17:22.153Z,28.75
2023-01-15T04:18:22.125Z,28.77
2023-01-15T04:19:22.084Z,28.75
2023-01-15T04:20:22.079Z,28.77
2023-01-15T04:21:22.076Z,28.79
2023-01-15T04:22:22.034Z,28.72
2023-01-15T04:23:22.003Z,28.78
2023-01-15T04:24:21.970Z,28.72
2023-01-15T04:25:21.932Z,28.79
2023-01-15T04:26:21.928Z,28.75
2023-01-15T04:27:21.908Z,28.75
2023-01-15T04:28:21.862Z,28.77
2023-01-15T04:29:21.835Z,28.71
2023-01-15T04:30:21.802Z,28.75
2023-01-15T04:31:21.861Z,28.74
2023-01-15T04:32:21.741Z,28.70
2023-01-15T04:33:21.713Z,28.74
2023-01-15T04:34:21.698Z,28.77
2023-01-15T04:35:21.663Z,28.76
2023-01-15T04:36:21.654Z,28.74
2023-01-15T04:37:21.641Z,28.77
2023-01-15T04:38:21.600Z,28.76
2023-01-15T04:39:21.556Z,28.78
2023-01-15T04:40:21.553Z,28.77
2023-01-15T04:41:21.521Z,28.75
2023-01-15T04:42:21.493Z,28.75
2023-01-15T04:43:21.471Z,28.74
2023-01-15T04:44:21.449Z,28.71
2023-01-15T04:45:21.436Z,28.74
2023-01-15T04:46:21.432Z,28.79
2023-01-15T04:47:21.378Z,28.77
2023-01-15T04:48:21.357Z,28.76
2023-01-15T04:49:21.879Z,28.76
2023-01-15T04:50:21.309Z,28.73
2023-01-15T04:51:21.287Z,28.72
2023-01-15T04:52:21.260Z,28.76
2023-01-15T04:53:21.229Z,28.74
2023-01-15T04:54:21.188Z,28.78
2023-01-15T04:55:21.201Z,28.75
2023-01-15T04:56:21.160Z,28.76
2023-01-15T04:57:21.150Z,28.74
2023-01-15T04:58:21.102Z,28.75
2023-01-15T04:59:21.094Z,28.71
2023-01-15T05:00:21.067Z,28.75
2023-01-15T05:01:21.088Z,28.72
2023-01-15T05:02:21.105Z,28.79
2023-01-15T05:03:20.989Z,28.74
2023-01-15T05:04:21.021Z,28.72
2023-01-15T05:05:20.973Z,28.74
2023-01-15T05:06:20.918Z,28.74
2023-01-15T05:07:20.910Z,28.76
2023-01-15T05:08:20.905Z,28.75
2023-01-15T05:09:20.884Z,28.72
2023-01-15T05:10:20.846Z,28.75
2023-01-15T05:11:20.832Z,28.72
2023-01-15T05:12:20.809Z,28.71
2023-01-15T05:13:20.784Z,28.74
2023-01-15T05:14:20.764Z,28.74
2023-01-15T05:15:20.738Z,28.76
2023-01-15T05:16:20.721Z,28.78
2023-01-15T05:17:20.716Z,28.74
2023-01-15T05:18:20.689Z,28.74
2023-01-15T05:19:20.677Z,28.74
2023-01-15T05:20:20.642Z,28.71
2023-01-15T05:21:20.633Z,28.77
2023-01-15T05:22:20.600Z,28.69
2023-01-15T05:23:20.602Z,28.72
2023-01-15T05:24:20.553Z,28.72
2023-01-15T05:25:20.516Z,28.72
2023-01-15T05:26:20.520Z,28.72
2023-01-15T05:27:20.472Z,28.72
2023-01-15T05:28:20.464Z,28.72
2023-01-15T05:29:20.432Z,28.65
2023-01-15T05:30:20.389Z,28.69
2023-01-15T05:31:20.463Z,28.68
2023-01-15T05:32:20.350Z,28.65
2023-01-15T05:33:20.357Z,28.72
2023-01-15T05:34:20.314Z,28.64
2023-01-15T05:35:20.271Z,28.68
2023-01-15T05:36:20.240Z,28.71
2023-01-15T05:37:20.236Z,28.72
2023-01-15T05:38:20.204Z,28.67
2023-01-15T05:39:20.186Z,28.67
2023-01-15T05:40:20.145Z,28.68
2023-01-15T05:41:20.124Z,28.65
2023-01-15T05:42:20.093Z,28.65
2023-01-15T05:43:20.095Z,28.71
2023-01-15T05:44:20.057Z,28.67
2023-01-15T05:45:20.014Z,28.62
2023-01-15T05:46:20.057Z,28.64
2023-01-15T05:47:19.982Z,28.65
2023-01-15T05:48:19.942Z,28.64
2023-01-15T05:49:19.913Z,28.61
2023-01-15T05:50:19.898Z,28.65
2023-01-15T05:51:19.856Z,28.65
2023-01-15T05:52:19.812Z,28.65
2023-01-15T05:53:19.879Z,28.65
2023-01-15T05:54:19.783Z,28.65
2023-01-15T05:55:19.736Z,28.68
2023-01-15T05:56:19.727Z,28.67
2023-01-15T05:57:19.703Z,28.67
2023-01-15T05:58:19.672Z,28.63
2023-01-15T05:59:19.639Z,28.69
2023-01-15T06:00:19.607Z,28.64
2023-01-15T06:01:19.583Z,28.64
2023-01-15T06:02:19.568Z,28.61
2023-01-15T06:03:19.575Z,28.64
2023-01-15T06:04:19.493Z,28.64
2023-01-15T06:05:19.453Z,28.57
2023-01-15T06:06:19.430Z,28.64
2023-01-15T06:07:19.406Z,28.63
2023-01-15T06:08:19.398Z,28.60
2023-01-15T06:09:19.398Z,28.64
2023-01-15T06:10:19.351Z,28.63
2023-01-15T06:11:19.307Z,28.62
2023-01-15T06:12:19.275Z,28.60
2023-01-15T06:13:19.264Z,28.63
2023-01-15T06:14:19.233Z,28.65
2023-01-15T06:15:19.215Z,28.61
2023-01-15T06:16:19.223Z,28.64
2023-01-15T06:17:19.157Z,28.64
2023-01-15T06:18:19.136Z,28.61
2023-01-15T06:19:19.116Z,28.60
2023-01-15T06:20:19.077Z,28.65
2023-01-15T06:21:19.925Z,28.60
2023-01-15T06:22:19.039Z,28.65
2023-01-15T06:23:19.013Z,28.65
2023-01-15T06:24:18.987Z,28.60
2023-01-15T06:25:18.946Z,28.61
2023-01-15T06:26:18.953Z,28.60
2023-01-15T06:27:18.906Z,28.61
2023-01-15T06:56:18.248Z,28.63
2023-01-15T06:57:18.231Z,28.60
2023-01-15T06:58:18.210Z,28.58
2023-01-15T06:59:18.187Z,28.61
2023-01-15T07:00:18.154Z,28.64
2023-01-15T07:01:18.295Z,28.57
2023-01-15T07:02:18.349Z,28.60
2023-01-15T07:03:18.081Z,28.58
2023-01-15T07:04:18.060Z,28.53
2023-01-15T07:05:18.048Z,28.58
2023-01-15T07:06:18.013Z,28.56
2023-01-15T07:07:17.991Z,28.58
2023-01-15T07:08:17.978Z,28.54
2023-01-15T07:09:17.946Z,28.56
2023-01-15T07:10:17.943Z,28.60
2023-01-15T07:11:17.907Z,28.57
2023-01-15T07:12:17.903Z,28.54
2023-01-15T07:13:17.881Z,28.58
2023-01-15T07:14:17.856Z,28.51
2023-01-15T07:15:17.831Z,28.55
2023-01-15T07:16:17.835Z,28.58
2023-01-15T07:17:17.762Z,28.56
2023-01-15T07:18:17.755Z,28.57
2023-01-15T07:19:17.728Z,28.53
2023-01-15T07:20:17.705Z,28.60
2023-01-15T07:21:17.665Z,28.54
2023-01-15T07:22:17.659Z,28.51
2023-01-15T07:23:17.622Z,28.60
2023-01-15T07:24:17.662Z,28.56
2023-01-15T07:25:17.592Z,28.57
2023-01-15T07:26:17.585Z,28.54
2023-01-15T07:27:17.553Z,28.54
2023-01-15T07:28:17.542Z,28.54
2023-01-15T07:29:17.535Z,28.54
2023-01-15T07:30:17.555Z,28.53
2023-01-15T07:31:17.504Z,28.53
2023-01-15T07:32:17.451Z,28.54
2023-01-15T07:33:17.455Z,28.49
2023-01-15T07:34:17.408Z,28.50
2023-01-15T07:35:17.388Z,28.54
2023-01-15T07:36:17.358Z,28.50
2023-01-15T07:37:17.345Z,28.48
2023-01-15T07:38:17.311Z,28.51
2023-01-15T07:39:17.286Z,28.51
2023-01-15T07:40:17.280Z,28.47
2023-01-15T07:41:17.232Z,28.47
2023-01-15T07:42:17.217Z,28.53
2023-01-15T07:43:17.191Z,28.49
2023-01-15T07:44:17.167Z,28.50
2023-01-15T07:45:17.149Z,28.50
2023-01-15T07:46:17.112Z,28.49
2023-01-15T07:47:17.115Z,28.47
2023-01-15T07:48:17.096Z,28.49
2023-01-15T07:49:17.039Z,28.49
2023-01-15T07:50:17.050Z,28.46
2023-01-15T07:51:17.023Z,28.46
2023-01-15T07:52:16.991Z,28.46
2023-01-15T07:53:16.954Z,28.47
2023-01-15T07:54:16.946Z,28.46
2023-01-15T07:55:16.935Z,28.45
2023-01-15T07:56:16.904Z,28.45
2023-01-15T07:57:16.849Z,28.45
2023-01-15T07:58:16.837Z,28.39
2023-01-15T07:59:16.804Z,28.46
2023-01-15T08:00:16.892Z,28.46
2023-01-15T08:01:16.856Z,28.45
2023-01-15T08:02:16.722Z,28.42
2023-01-15T08:03:16.692Z,28.44
2023-01-15T08:04:16.709Z,28.41
2023-01-15T08:05:16.656Z,28.43
2023-01-15T08:06:16.624Z,28.39
2023-01-15T08:07:16.586Z,28.39
2023-01-15T08:08:16.572Z,28.45
2023-01-15T08:09:16.536Z,28.35
2023-01-15T08:10:16.500Z,28.38
2023-01-15T08:11:16.491Z,28.38
2023-01-15T08:12:16.455Z,28.44
2023-01-15T08:13:16.425Z,28.36
2023-01-15T08:14:16.420Z,28.35
2023-01-15T08:15:16.399Z,28.35
2023-01-15T08:16:16.364Z,28.34
2023-01-15T08:17:16.323Z,28.36
2023-01-15T08:18:16.302Z,28.41
2023-01-15T08:19:16.263Z,28.35
2023-01-15T08:20:16.288Z,28.36
2023-01-15T08:21:16.244Z,28.41
2023-01-15T08:22:16.196Z,28.35
2023-01-15T08:23:16.173Z,28.35
2023-01-15T08:24:16.133Z,28.35
2023-01-15T08:25:16.113Z,28.31
2023-01-15T08:26:16.096Z,28.35
2023-01-15T08:27:16.057Z,28.35
2023-01-15T08:28:16.031Z,28.35
2023-01-15T08:29:16.010Z,28.34
2023-01-15T08:30:15.982Z,28.34
2023-01-15T08:31:16.001Z,28.38
2023-01-15T08:32:15.928Z,28.33
2023-01-15T08:33:15.899Z,28.31
2023-01-15T08:34:15.876Z,28.31
2023-01-15T08:35:15.850Z,28.29
2023-01-15T08:36:15.812Z,28.30
2023-01-15T08:37:15.783Z,28.26
2023-01-15T08:38:15.785Z,28.25
2023-01-15T08:39:15.755Z,28.24
2023-01-15T08:40:15.740Z,28.16
2023-01-15T08:41:15.709Z,28.17
2023-01-15T08:42:15.685Z,28.14
2023-01-15T08:43:15.640Z,28.19
2023-01-15T08:44:15.642Z,28.14
2023-01-15T08:45:15.592Z,28.23
2023-01-15T08:46:15.604Z,28.18
2023-01-15T08:47:15.555Z,28.20
2023-01-15T08:48:15.558Z,28.23
2023-01-15T08:49:15.503Z,28.22
2023-01-15T08:50:15.487Z,28.20
2023-01-15T08:51:15.485Z,28.23
2023-01-15T08:52:15.431Z,28.24
2023-01-15T08:53:15.411Z,28.18
2023-01-15T08:54:15.395Z,28.24
2023-01-15T08:55:15.370Z,28.23
2023-01-15T08:56:15.347Z,28.23
2023-01-15T08:57:15.342Z,28.20
2023-01-15T08:58:15.294Z,28.24
2023-01-15T08:59:15.266Z,28.24
2023-01-15T09:00:17.376Z,28.26
2023-01-15T09:01:15.319Z,28.24
2023-01-15T09:02:15.239Z,28.24
2023-01-15T09:03:15.190Z,28.22
2023-01-15T09:04:15.158Z,28.24
2023-01-15T09:05:15.155Z,28.18
2023-01-15T09:06:15.115Z,28.21
2023-01-15T09:07:15.116Z,28.18
2023-01-15T09:08:15.081Z,28.17
2023-01-15T09:09:15.030Z,28.17
2023-01-15T09:10:15.016Z,28.24
2023-01-15T09:11:14.973Z,28.24
2023-01-15T09:12:14.974Z,28.21
2023-01-15T09:13:14.915Z,28.21
2023-01-15T09:14:58.456Z,28.17
2023-01-15T09:15:15.871Z,28.21
2023-01-15T09:16:14.903Z,28.21
2023-01-15T09:17:14.828Z,28.20
2023-01-15T09:18:14.792Z,28.20
2023-01-15T09:19:14.772Z,28.24
2023-01-15T09:20:14.748Z,28.16
2023-01-15T09:21:14.729Z,28.19
2023-01-15T09:22:14.717Z,28.17
2023-01-15T09:23:14.680Z,28.13
2023-01-15T09:24:14.632Z,28.24
2023-01-15T09:25:14.621Z,28.16
2023-01-15T09:26:14.587Z,28.17
2023-01-15T09:27:14.566Z,28.14
2023-01-15T09:28:14.520Z,28.19
2023-01-15T09:29:14.521Z,28.15
2023-01-15T09:30:14.468Z,28.18
2023-01-15T09:31:14.501Z,28.13
2023-01-15T09:32:14.430Z,28.19
2023-01-15T09:33:14.387Z,28.12
2023-01-15T09:34:14.372Z,28.16
2023-01-15T09:35:14.343Z,28.15
2023-01-15T09:36:14.299Z,28.09
2023-01-15T09:37:14.293Z,28.12
2023-01-15T09:38:14.275Z,28.12
2023-01-15T09:39:14.229Z,28.15
2023-01-15T09:40:14.206Z,28.16
2023-01-15T09:41:14.156Z,28.08
2023-01-15T09:42:14.146Z,28.12
2023-01-15T09:43:14.131Z,28.12
2023-01-15T09:44:14.075Z,28.11
2023-01-15T09:45:14.047Z,28.14
2023-01-15T09:46:14.138Z,28.14
2023-01-15T09:47:14.014Z,28.11
2023-01-15T09:48:13.985Z,28.11
2023-01-15T09:49:13.943Z,28.12
2023-01-15T09:50:13.918Z,28.12
2023-01-15T09:51:13.890Z,28.12
2023-01-15T09:52:13.857Z,28.09
2023-01-15T09:53:13.849Z,28.12
2023-01-15T09:54:13.813Z,28.11
2023-01-15T09:55:13.789Z,28.11
2023-01-15T09:56:13.764Z,28.14
2023-01-15T09:57:13.747Z,28.15
2023-01-15T09:58:13.760Z,28.15
2023-01-15T09:59:13.710Z,28.15
2023-01-15T10:00:13.674Z,28.08
2023-01-15T10:01:13.653Z,28.08
2023-01-15T10:02:13.635Z,28.03
2023-01-15T10:03:13.650Z,28.11
2023-01-15T10:04:13.630Z,28.10
2023-01-15T10:05:13.559Z,28.04
2023-01-15T10:06:13.524Z,28.11
2023-01-15T10:07:13.501Z,28.02
2023-01-15T10:08:13.490Z,28.08
2023-01-15T10:09:13.451Z,28.04
2023-01-15T10:10:13.428Z,28.01
2023-01-15T10:11:13.427Z,28.03
2023-01-15T10:12:13.378Z,28.07
2023-01-15T10:13:13.370Z,28.02
2023-01-15T10:14:13.339Z,27.99
2023-01-15T10:15:13.316Z,28.02
2023-01-15T10:16:13.371Z,28.02
2023-01-15T10:17:13.275Z,28.01
2023-01-15T10:18:13.241Z,28.03
2023-01-15T10:19:13.224Z,28.05
2023-01-15T10:20:13.194Z,28.01
2023-01-15T10:21:13.188Z,28.09
2023-01-15T10:22:13.142Z,28.03
2023-01-15T10:23:13.125Z,28.03
2023-01-15T10:24:13.103Z,28.05
2023-01-15T10:25:13.072Z,28.03
2023-01-15T10:26:13.057Z,28.06
2023-01-15T10:27:13.073Z,28.03
2023-01-15T10:28:13.001Z,28.09
2023-01-15T10:29:12.983Z,28.03
2023-01-15T10:30:12.959Z,27.98
2023-01-15T10:31:12.953Z,28.01
2023-01-15T10:32:12.907Z,28.02
2023-01-15T10:33:12.872Z,28.02
2023-01-15T10:34:12.878Z,28.00
2023-01-15T10:35:12.836Z,27.98
2023-01-15T10:36:12.809Z,27.98
2023-01-15T10:37:12.793Z,27.97
2023-01-15T10:38:12.776Z,27.97
2023-01-15T10:39:12.781Z,27.96
2023-01-15T10:40:12.709Z,27.99
2023-01-15T10:41:12.692Z,27.91
2023-01-15T10:42:12.662Z,27.92
2023-01-15T10:43:12.660Z,27.95
2023-01-15T10:44:12.612Z,27.87
2023-01-15T10:45:12.575Z,27.83
2023-01-15T10:46:12.585Z,27.86
2023-01-15T10:47:12.534Z,27.79
2023-01-15T10:48:12.482Z,27.79
2023-01-15T10:49:12.469Z,27.78
2023-01-15T10:50:12.427Z,27.78
2023-01-15T10:51:12.389Z,27.76
2023-01-15T10:52:12.344Z,27.76
2023-01-15T10:53:12.318Z,27.70
2023-01-15T10:54:12.309Z,27.70
2023-01-15T10:55:12.261Z,27.73
2023-01-15T10:56:12.237Z,27.73
2023-01-15T10:57:12.267Z,27.73
2023-01-15T10:58:12.172Z,27.69
2023-01-15T10:59:12.160Z,27.62
2023-01-15T11:00:12.121Z,27.66
2023-01-15T11:01:12.170Z,27.64
2023-01-15T11:02:12.227Z,27.64
2023-01-15T11:03:12.058Z,27.63
2023-01-15T11:04:11.997Z,27.61
2023-01-15T11:05:11.955Z,27.58
2023-01-15T11:06:11.915Z,27.55
2023-01-15T11:07:11.881Z,27.55
2023-01-15T11:08:54.902Z,27.55
2023-01-15T11:09:12.806Z,27.55
2023-01-15T11:10:11.822Z,27.55
2023-01-15T11:11:11.745Z,27.52
2023-01-15T11:12:11.708Z,27.54
2023-01-15T11:13:11.659Z,27.55
2023-01-15T11:14:11.646Z,27.55
2023-01-15T11:15:11.604Z,27.49
2023-01-15T11:16:11.587Z,27.49
2023-01-15T11:17:11.535Z,27.53
2023-01-15T11:18:11.504Z,27.50
2023-01-15T11:19:11.463Z,27.49
2023-01-15T11:20:11.448Z,27.47
2023-01-15T11:21:11.412Z,27.49
2023-01-15T11:22:11.365Z,27.48
2023-01-15T11:23:11.347Z,27.45
2023-01-15T11:24:11.296Z,27.45
2023-01-15T11:25:11.276Z,27.49
2023-01-15T11:26:11.259Z,27.53
2023-01-15T11:27:11.226Z,27.43
2023-01-15T11:28:11.188Z,27.46
2023-01-15T11:29:11.173Z,27.45
2023-01-15T11:30:11.137Z,27.47
2023-01-15T11:31:11.117Z,27.46
2023-01-15T11:32:11.058Z,27.46
2023-01-15T11:33:11.093Z,27.49
2023-01-15T11:34:11.007Z,27.47
2023-01-15T11:35:10.999Z,27.45
2023-01-15T11:36:10.959Z,27.43
2023-01-15T11:37:10.918Z,27.40
2023-01-15T11:38:10.881Z,27.40
2023-01-15T11:39:10.831Z,27.41
2023-01-15T11:40:10.807Z,27.43
2023-01-15T11:41:10.792Z,27.43
2023-01-15T11:42:10.750Z,27.43
2023-01-15T11:43:10.731Z,27.36
2023-01-15T11:44:10.696Z,27.42
2023-01-15T11:45:10.652Z,27.36
2023-01-15T11:46:10.703Z,27.43
2023-01-15T11:47:10.599Z,27.39
2023-01-15T11:48:10.579Z,27.40
2023-01-15T11:49:10.568Z,27.44
2023-01-15T11:50:10.521Z,27.46
2023-01-15T11:51:10.498Z,27.39
2023-01-15T11:52:10.446Z,27.44
2023-01-15T11:53:10.439Z,27.40
2023-01-15T11:54:10.406Z,27.42
2023-01-15T11:55:10.366Z,27.41
2023-01-15T11:56:10.344Z,27.44
2023-01-15T11:57:10.315Z,27.47
2023-01-15T11:58:10.277Z,27.48
2023-01-15T11:59:10.272Z,27.49
2023-01-15T12:00:10.235Z,27.52
2023-01-15T12:01:10.233Z,27.52
2023-01-15T12:02:10.192Z,27.50
2023-01-15T12:03:10.151Z,27.58
2023-01-15T12:04:10.252Z,27.59
2023-01-15T12:05:10.116Z,27.63
2023-01-15T12:06:10.116Z,27.60
2023-01-15T12:07:10.043Z,27.65
2023-01-15T12:08:10.026Z,27.61
2023-01-15T12:09:09.982Z,27.64
2023-01-15T12:10:09.970Z,27.62
2023-01-15T12:11:25.548Z,27.65
2023-01-15T12:12:10.927Z,27.59
2023-01-15T12:13:09.886Z,27.64
2023-01-15T12:14:09.852Z,27.64
2023-01-15T12:15:09.832Z,27.68
2023-01-15T12:16:09.871Z,27.68
2023-01-15T12:17:09.782Z,27.69
2023-01-15T12:18:09.718Z,27.76
2023-01-15T12:19:09.702Z,27.70
2023-01-15T12:20:09.663Z,27.71
2023-01-15T12:21:09.657Z,27.77
2023-01-15T12:22:09.616Z,27.71
2023-01-15T12:23:09.589Z,27.81
2023-01-15T12:24:09.551Z,27.76
2023-01-15T12:25:09.534Z,27.78
2023-01-15T12:26:09.497Z,27.75
2023-01-15T12:27:09.447Z,27.77
2023-01-15T12:28:09.440Z,27.78
2023-01-15T12:29:09.398Z,27.75
2023-01-15T12:30:09.354Z,27.78
2023-01-15T12:31:09.351Z,27.76
2023-01-15T12:32:09.272Z,27.80
2023-01-15T12:33:09.259Z,27.75
2023-01-15T12:34:09.226Z,27.80
2023-01-15T12:35:09.171Z,27.80
2023-01-15T12:36:09.145Z,27.82
2023-01-15T12:37:09.121Z,27.76
2023-01-15T12:38:10.584Z,27.82
2023-01-15T12:39:09.040Z,27.85
2023-01-15T12:40:09.018Z,27.85
2023-01-15T12:41:08.977Z,27.84
2023-01-15T12:42:08.966Z,27.86
2023-01-15T12:43:08.921Z,27.86
2023-01-15T12:44:08.899Z,27.87
2023-01-15T12:45:08.853Z,27.88
2023-01-15T12:46:08.822Z,27.84
2023-01-15T12:47:08.809Z,27.91
2023-01-15T12:48:08.753Z,27.87
2023-01-15T12:49:08.720Z,27.92
2023-01-15T12:50:08.713Z,27.92
2023-01-15T12:51:08.669Z,27.89
2023-01-15T12:52:08.655Z,27.93
2023-01-15T12:53:08.613Z,27.98
2023-01-15T12:54:08.576Z,27.93
2023-01-15T12:55:08.547Z,27.92
2023-01-15T12:56:08.527Z,27.88
2023-01-15T12:57:08.489Z,27.95
2023-01-15T12:58:08.458Z,27.96
2023-01-15T12:59:08.428Z,27.95
2023-01-15T13:00:08.388Z,27.99
2023-01-15T13:01:08.584Z,27.95
2023-01-15T13:02:08.406Z,27.96
2023-01-15T13:03:08.288Z,27.97
2023-01-15T13:04:08.251Z,27.96
2023-01-15T13:05:08.233Z,27.96
2023-01-15T13:06:08.186Z,28.00
2023-01-15T13:07:08.195Z,27.97
2023-01-15T13:08:08.126Z,27.97
2023-01-15T13:09:08.114Z,28.03
2023-01-15T13:10:08.087Z,27.98
2023-01-15T13:11:08.081Z,28.03
2023-01-15T13:12:08.039Z,28.03
2023-01-15T13:13:07.999Z,28.05
2023-01-15T13:14:07.958Z,28.00
2023-01-15T13:15:07.925Z,28.07
2023-01-15T13:16:07.950Z,28.02
2023-01-15T13:17:07.880Z,28.00
2023-01-15T13:18:07.831Z,28.01
2023-01-15T13:19:07.807Z,27.98
2023-01-15T13:20:07.796Z,28.04